KDRT/DRT METAR and TAF weather

Enter ICAO airport designator
Station Type Date Time Source
KDRT METAR 2019/08/22 02:53 UTC NOAA

KDRT 220253Z AUTO 10007KT 10SM CLR 33/17 A2987 RMK AO2 SLP097 T03330167 53007


Station Type Date Time Source
KDRT Decoded METAR 2019/08/22 02:53 UTC NOAA

Station name not available
Aug 21, 2019 - 10:53 PM EDT / 2019.08.22 0253 UTC
Wind: from the E (100 degrees) at 8 MPH (7 KT):0
Visibility: 10 mile(s):0
Sky conditions: clear
Temperature: 91.9 F (33.3 C)
Dew Point: 62.1 F (16.7 C)
Relative Humidity: 37%
Pressure (altimeter): 29.87 in. Hg (1011 hPa)
Pressure tendency: 0.02 inches (0.7 hPa) higher than three hours ago
ob: KDRT 220253Z AUTO 10007KT 10SM CLR 33/17 A2987 RMK AO2 SLP097 T03330167 53007
cycle: 3

Station Type Date Time Source
KDRT TAF 2019/08/21 18:33 UTC NOAA

TAF KDRT 211729Z 2118/2218 12012KT P6SM FEW050

Example: see airport list